Аэропорт: Алматы. Алма-Ата

ICAO: UAAA

METAR:
2020-10-24 05:30:00
UAAA 240530Z 36002MPS 300V060 9999 FEW050 SCT100 09/M03 Q1029 R05L/CLRD65 R05R/1///60 NOSIG
METAR:
2020-10-23 23:01:00
TAF UAAA 232301Z 2400/2424 35003G08MPS 9999 BKN030CB BKN100 TX08/2408Z TN02/2401Z TEMPO 2400/2404 15003MPS 3100 -SHRA BR SCT007 BKN011CB TEMPO 2406/2412 27003G08MPS